sensor_id;sensor_type;location;lat;lon;timestamp;P1;durP1;ratioP1;P2;durP2;ratioP2
15814;SDS011;8008;50.024;8.172;2023-10-13T03:02:35;9.50;;;6.93;;
15814;SDS011;8008;50.024;8.172;2023-10-13T03:05:10;11.95;;;6.88;;
15814;SDS011;8008;50.024;8.172;2023-10-13T03:07:40;9.10;;;7.10;;
15814;SDS011;8008;50.024;8.172;2023-10-13T03:10:09;8.93;;;6.97;;
15814;SDS011;8008;50.024;8.172;2023-10-13T03:12:37;10.43;;;7.47;;
15814;SDS011;8008;50.024;8.172;2023-10-13T03:15:08;8.63;;;6.85;;
15814;SDS011;8008;50.024;8.172;2023-10-13T03:17:45;10.73;;;7.20;;
15814;SDS011;8008;50.024;8.172;2023-10-13T03:20:13;11.90;;;7.05;;
15814;SDS011;8008;50.024;8.172;2023-10-13T03:22:42;9.57;;;7.10;;
15814;SDS011;8008;50.024;8.172;2023-10-13T03:25:11;11.60;;;6.88;;
15814;SDS011;8008;50.024;8.172;2023-10-13T03:27:50;13.88;;;7.35;;
15814;SDS011;8008;50.024;8.172;2023-10-13T03:30:31;11.10;;;7.10;;
15814;SDS011;8008;50.024;8.172;2023-10-13T03:33:04;11.30;;;6.90;;
15814;SDS011;8008;50.024;8.172;2023-10-13T03:35:36;10.50;;;6.63;;
15814;SDS011;8008;50.024;8.172;2023-10-13T03:38:08;11.88;;;7.10;;
15814;SDS011;8008;50.024;8.172;2023-10-13T03:40:44;10.20;;;6.97;;
15814;SDS011;8008;50.024;8.172;2023-10-13T03:43:29;7.82;;;6.18;;
15814;SDS011;8008;50.024;8.172;2023-10-13T03:45:58;10.07;;;7.05;;
15814;SDS011;8008;50.024;8.172;2023-10-13T03:48:36;11.73;;;6.65;;
15814;SDS011;8008;50.024;8.172;2023-10-13T03:51:18;9.70;;;6.90;;
15814;SDS011;8008;50.024;8.172;2023-10-13T03:53:47;12.80;;;7.20;;
15814;SDS011;8008;50.024;8.172;2023-10-13T03:56:21;12.35;;;6.85;;
15814;SDS011;8008;50.024;8.172;2023-10-13T03:58:59;10.40;;;6.97;;
15814;SDS011;8008;50.024;8.172;2023-10-13T04:01:32;9.65;;;6.78;;
15814;SDS011;8008;50.024;8.172;2023-10-13T04:04:12;9.18;;;6.80;;
15814;SDS011;8008;50.024;8.172;2023-10-13T04:06:41;9.75;;;6.43;;
15814;SDS011;8008;50.024;8.172;2023-10-13T04:09:18;11.98;;;6.68;;
15814;SDS011;8008;50.024;8.172;2023-10-13T04:12:06;14.88;;;6.95;;
15814;SDS011;8008;50.024;8.172;2023-10-13T04:15:15;9.05;;;6.50;;
15814;SDS011;8008;50.024;8.172;2023-10-13T04:17:45;9.20;;;6.30;;
15814;SDS011;8008;50.024;8.172;2023-10-13T04:20:16;10.57;;;6.30;;
15814;SDS011;8008;50.024;8.172;2023-10-13T04:22:59;9.90;;;6.43;;
15814;SDS011;8008;50.024;8.172;2023-10-13T04:25:45;9.80;;;6.85;;
15814;SDS011;8008;50.024;8.172;2023-10-13T04:28:33;11.88;;;7.18;;
15814;SDS011;8008;50.024;8.172;2023-10-13T04:31:17;10.00;;;6.75;;
15814;SDS011;8008;50.024;8.172;2023-10-13T04:34:02;9.43;;;6.00;;
15814;SDS011;8008;50.024;8.172;2023-10-13T04:36:43;7.82;;;6.20;;
15814;SDS011;8008;50.024;8.172;2023-10-13T04:39:12;10.05;;;6.70;;
15814;SDS011;8008;50.024;8.172;2023-10-13T04:41:55;15.52;;;7.55;;
15814;SDS011;8008;50.024;8.172;2023-10-13T04:44:37;10.55;;;6.72;;
15814;SDS011;8008;50.024;8.172;2023-10-13T04:47:19;12.00;;;7.60;;
15814;SDS011;8008;50.024;8.172;2023-10-13T04:49:48;11.90;;;7.28;;
15814;SDS011;8008;50.024;8.172;2023-10-13T04:52:20;13.48;;;8.43;;
15814;SDS011;8008;50.024;8.172;2023-10-13T04:55:11;12.65;;;7.05;;
15814;SDS011;8008;50.024;8.172;2023-10-13T04:57:59;13.95;;;7.80;;
15814;SDS011;8008;50.024;8.172;2023-10-13T05:00:37;11.60;;;7.60;;
15814;SDS011;8008;50.024;8.172;2023-10-13T05:03:49;11.23;;;7.63;;
15814;SDS011;8008;50.024;8.172;2023-10-13T05:06:35;13.25;;;7.65;;
15814;SDS011;8008;50.024;8.172;2023-10-13T05:09:22;11.68;;;7.65;;
15814;SDS011;8008;50.024;8.172;2023-10-13T05:12:07;12.73;;;7.28;;
15814;SDS011;8008;50.024;8.172;2023-10-13T05:14:52;12.88;;;7.75;;
15814;SDS011;8008;50.024;8.172;2023-10-13T05:17:38;10.13;;;7.07;;
15814;SDS011;8008;50.024;8.172;2023-10-13T05:20:24;10.63;;;7.00;;
15814;SDS011;8008;50.024;8.172;2023-10-13T05:23:11;13.18;;;6.90;;
15814;SDS011;8008;50.024;8.172;2023-10-13T05:26:01;9.68;;;6.82;;
15814;SDS011;8008;50.024;8.172;2023-10-13T05:28:47;11.43;;;6.97;;
15814;SDS011;8008;50.024;8.172;2023-10-13T05:31:47;10.43;;;6.35;;
15814;SDS011;8008;50.024;8.172;2023-10-13T05:34:33;10.30;;;6.70;;
15814;SDS011;8008;50.024;8.172;2023-10-13T05:37:19;9.63;;;6.70;;
15814;SDS011;8008;50.024;8.172;2023-10-13T05:40:05;9.77;;;6.43;;
15814;SDS011;8008;50.024;8.172;2023-10-13T05:42:53;13.32;;;6.80;;
15814;SDS011;8008;50.024;8.172;2023-10-13T05:45:39;9.70;;;6.57;;
15814;SDS011;8008;50.024;8.172;2023-10-13T05:48:36;10.32;;;6.68;;
15814;SDS011;8008;50.024;8.172;2023-10-13T05:51:29;10.13;;;7.15;;
15814;SDS011;8008;50.024;8.172;2023-10-13T05:54:10;10.75;;;7.10;;
15814;SDS011;8008;50.024;8.172;2023-10-13T05:56:56;12.23;;;6.70;;
15814;SDS011;8008;50.024;8.172;2023-10-13T05:59:43;12.95;;;7.60;;
15814;SDS011;8008;50.024;8.172;2023-10-13T06:02:30;11.52;;;7.25;;
15814;SDS011;8008;50.024;8.172;2023-10-13T06:05:15;11.95;;;7.18;;
15814;SDS011;8008;50.024;8.172;2023-10-13T06:08:01;10.10;;;6.85;;
15814;SDS011;8008;50.024;8.172;2023-10-13T06:10:47;12.05;;;7.53;;
15814;SDS011;8008;50.024;8.172;2023-10-13T06:13:33;13.48;;;7.80;;
15814;SDS011;8008;50.024;8.172;2023-10-13T06:16:20;11.95;;;7.30;;
15814;SDS011;8008;50.024;8.172;2023-10-13T06:19:11;11.70;;;7.68;;
15814;SDS011;8008;50.024;8.172;2023-10-13T06:21:57;11.50;;;7.32;;
15814;SDS011;8008;50.024;8.172;2023-10-13T06:24:42;9.98;;;6.75;;
15814;SDS011;8008;50.024;8.172;2023-10-13T06:27:28;11.07;;;7.10;;
15814;SDS011;8008;50.024;8.172;2023-10-13T06:30:13;17.15;;;7.50;;
15814;SDS011;8008;50.024;8.172;2023-10-13T06:32:45;12.45;;;6.75;;
15814;SDS011;8008;50.024;8.172;2023-10-13T06:35:13;9.95;;;6.75;;
15814;SDS011;8008;50.024;8.172;2023-10-13T06:37:49;9.93;;;6.85;;
15814;SDS011;8008;50.024;8.172;2023-10-13T06:40:18;13.63;;;7.13;;
15814;SDS011;8008;50.024;8.172;2023-10-13T06:43:00;10.45;;;6.63;;
15814;SDS011;8008;50.024;8.172;2023-10-13T06:45:45;10.55;;;6.43;;
15814;SDS011;8008;50.024;8.172;2023-10-13T06:48:25;11.32;;;6.97;;
15814;SDS011;8008;50.024;8.172;2023-10-13T06:50:53;11.95;;;7.07;;
15814;SDS011;8008;50.024;8.172;2023-10-13T06:53:22;11.10;;;7.18;;
15814;SDS011;8008;50.024;8.172;2023-10-13T06:55:51;10.20;;;7.10;;
15814;SDS011;8008;50.024;8.172;2023-10-13T06:58:25;12.43;;;7.57;;
15814;SDS011;8008;50.024;8.172;2023-10-13T07:00:53;14.48;;;8.02;;
15814;SDS011;8008;50.024;8.172;2023-10-13T07:03:25;11.43;;;7.78;;
15814;SDS011;8008;50.024;8.172;2023-10-13T07:05:53;10.18;;;7.18;;
15814;SDS011;8008;50.024;8.172;2023-10-13T07:08:25;10.75;;;7.28;;
15814;SDS011;8008;50.024;8.172;2023-10-13T07:10:57;10.07;;;6.95;;
15814;SDS011;8008;50.024;8.172;2023-10-13T07:13:32;9.35;;;7.22;;
15814;SDS011;8008;50.024;8.172;2023-10-13T07:16:04;11.57;;;7.22;;
15814;SDS011;8008;50.024;8.172;2023-10-13T07:18:38;12.57;;;7.65;;
15814;SDS011;8008;50.024;8.172;2023-10-13T07:21:16;11.50;;;7.25;;
15814;SDS011;8008;50.024;8.172;2023-10-13T07:23:50;15.10;;;7.35;;
15814;SDS011;8008;50.024;8.172;2023-10-13T07:26:35;12.50;;;7.35;;
15814;SDS011;8008;50.024;8.172;2023-10-13T07:29:09;13.07;;;6.97;;
15814;SDS011;8008;50.024;8.172;2023-10-13T07:31:38;11.77;;;7.50;;
15814;SDS011;8008;50.024;8.172;2023-10-13T07:34:09;12.13;;;7.18;;
15814;SDS011;8008;50.024;8.172;2023-10-13T07:36:50;12.02;;;6.95;;
15814;SDS011;8008;50.024;8.172;2023-10-13T07:39:19;9.05;;;6.95;;
15814;SDS011;8008;50.024;8.172;2023-10-13T07:41:51;12.65;;;7.47;;
15814;SDS011;8008;50.024;8.172;2023-10-13T07:44:22;10.65;;;6.80;;
15814;SDS011;8008;50.024;8.172;2023-10-13T07:46:55;9.95;;;6.82;;
15814;SDS011;8008;50.024;8.172;2023-10-13T07:49:29;13.02;;;6.95;;
15814;SDS011;8008;50.024;8.172;2023-10-13T07:51:59;14.38;;;7.82;;
15814;SDS011;8008;50.024;8.172;2023-10-13T07:54:42;11.15;;;6.85;;
15814;SDS011;8008;50.024;8.172;2023-10-13T07:57:10;11.23;;;6.93;;
15814;SDS011;8008;50.024;8.172;2023-10-13T07:59:40;10.23;;;6.88;;
15814;SDS011;8008;50.024;8.172;2023-10-13T08:02:14;13.63;;;6.70;;
15814;SDS011;8008;50.024;8.172;2023-10-13T08:05:05;9.32;;;6.57;;
15814;SDS011;8008;50.024;8.172;2023-10-13T08:07:41;12.07;;;7.03;;
15814;SDS011;8008;50.024;8.172;2023-10-13T08:10:10;12.27;;;7.05;;
15814;SDS011;8008;50.024;8.172;2023-10-13T08:12:39;12.77;;;6.95;;
15814;SDS011;8008;50.024;8.172;2023-10-13T08:15:10;12.77;;;6.65;;
15814;SDS011;8008;50.024;8.172;2023-10-13T08:17:47;12.05;;;6.88;;
15814;SDS011;8008;50.024;8.172;2023-10-13T08:20:20;11.55;;;6.80;;
15814;SDS011;8008;50.024;8.172;2023-10-13T08:22:48;11.27;;;6.50;;
15814;SDS011;8008;50.024;8.172;2023-10-13T08:25:36;11.15;;;6.20;;
15814;SDS011;8008;50.024;8.172;2023-10-13T08:28:18;10.10;;;6.43;;
15814;SDS011;8008;50.024;8.172;2023-10-13T08:31:23;9.80;;;6.80;;
15814;SDS011;8008;50.024;8.172;2023-10-13T08:33:53;12.20;;;6.47;;
15814;SDS011;8008;50.024;8.172;2023-10-13T08:36:33;10.85;;;6.90;;
15814;SDS011;8008;50.024;8.172;2023-10-13T08:39:04;9.48;;;6.50;;
15814;SDS011;8008;50.024;8.172;2023-10-13T08:42:03;8.40;;;6.53;;
15814;SDS011;8008;50.024;8.172;2023-10-13T08:44:39;9.32;;;5.80;;
15814;SDS011;8008;50.024;8.172;2023-10-13T08:47:12;10.68;;;6.63;;
15814;SDS011;8008;50.024;8.172;2023-10-13T08:49:44;10.25;;;6.15;;
15814;SDS011;8008;50.024;8.172;2023-10-13T08:52:18;12.63;;;6.68;;
15814;SDS011;8008;50.024;8.172;2023-10-13T08:55:12;9.30;;;5.82;;
15814;SDS011;8008;50.024;8.172;2023-10-13T08:57:55;10.40;;;5.85;;
15814;SDS011;8008;50.024;8.172;2023-10-13T09:00:29;10.68;;;6.32;;
15814;SDS011;8008;50.024;8.172;2023-10-13T09:03:22;10.52;;;5.90;;
15814;SDS011;8008;50.024;8.172;2023-10-13T09:06:05;11.02;;;6.28;;
15814;SDS011;8008;50.024;8.172;2023-10-13T09:08:36;8.52;;;5.88;;
15814;SDS011;8008;50.024;8.172;2023-10-13T09:11:31;12.07;;;6.18;;
15814;SDS011;8008;50.024;8.172;2023-10-13T09:14:15;11.55;;;6.20;;
15814;SDS011;8008;50.024;8.172;2023-10-13T09:17:03;11.07;;;6.07;;
15814;SDS011;8008;50.024;8.172;2023-10-13T09:19:45;9.27;;;6.32;;
15814;SDS011;8008;50.024;8.172;2023-10-13T09:22:21;8.85;;;6.32;;
15814;SDS011;8008;50.024;8.172;2023-10-13T09:24:55;10.48;;;6.60;;
15814;SDS011;8008;50.024;8.172;2023-10-13T09:27:27;10.10;;;6.30;;
15814;SDS011;8008;50.024;8.172;2023-10-13T09:29:58;8.25;;;5.93;;
15814;SDS011;8008;50.024;8.172;2023-10-13T09:32:36;10.40;;;6.22;;
15814;SDS011;8008;50.024;8.172;2023-10-13T09:35:16;12.98;;;6.70;;
15814;SDS011;8008;50.024;8.172;2023-10-13T09:37:45;13.27;;;6.85;;
15814;SDS011;8008;50.024;8.172;2023-10-13T09:40:17;10.27;;;6.13;;
15814;SDS011;8008;50.024;8.172;2023-10-13T09:43:01;13.57;;;6.95;;
15814;SDS011;8008;50.024;8.172;2023-10-13T09:45:35;12.02;;;6.38;;
15814;SDS011;8008;50.024;8.172;2023-10-13T09:48:07;12.77;;;6.55;;
15814;SDS011;8008;50.024;8.172;2023-10-13T09:50:44;12.68;;;6.72;;
15814;SDS011;8008;50.024;8.172;2023-10-13T09:53:15;11.43;;;6.80;;
15814;SDS011;8008;50.024;8.172;2023-10-13T09:55:47;15.10;;;7.00;;
15814;SDS011;8008;50.024;8.172;2023-10-13T09:58:17;8.52;;;5.97;;
15814;SDS011;8008;50.024;8.172;2023-10-13T10:00:54;11.73;;;6.20;;
15814;SDS011;8008;50.024;8.172;2023-10-13T10:03:43;10.50;;;6.60;;
15814;SDS011;8008;50.024;8.172;2023-10-13T10:06:20;10.70;;;6.03;;
15814;SDS011;8008;50.024;8.172;2023-10-13T10:09:03;7.90;;;6.55;;
15814;SDS011;8008;50.024;8.172;2023-10-13T10:11:48;10.68;;;5.85;;
15814;SDS011;8008;50.024;8.172;2023-10-13T10:17:39;10.13;;;6.97;;
15814;SDS011;8008;50.024;8.172;2023-10-13T10:20:09;9.50;;;6.68;;
15814;SDS011;8008;50.024;8.172;2023-10-13T10:25:36;10.23;;;6.70;;
15814;SDS011;8008;50.024;8.172;2023-10-13T10:28:06;10.07;;;6.38;;
15814;SDS011;8008;50.024;8.172;2023-10-13T10:30:35;12.90;;;7.60;;
15814;SDS011;8008;50.024;8.172;2023-10-13T10:33:05;9.93;;;6.28;;
15814;SDS011;8008;50.024;8.172;2023-10-13T10:35:39;11.05;;;6.60;;
15814;SDS011;8008;50.024;8.172;2023-10-13T10:38:09;8.90;;;6.90;;
15814;SDS011;8008;50.024;8.172;2023-10-13T10:40:53;12.60;;;6.78;;
15814;SDS011;8008;50.024;8.172;2023-10-13T10:43:28;11.02;;;6.93;;
15814;SDS011;8008;50.024;8.172;2023-10-13T10:46:08;10.27;;;6.07;;
15814;SDS011;8008;50.024;8.172;2023-10-13T10:48:41;8.80;;;6.30;;
15814;SDS011;8008;50.024;8.172;2023-10-13T10:51:10;12.75;;;6.20;;
15814;SDS011;8008;50.024;8.172;2023-10-13T10:53:47;8.13;;;6.45;;
15814;SDS011;8008;50.024;8.172;2023-10-13T10:56:17;9.63;;;6.55;;
15814;SDS011;8008;50.024;8.172;2023-10-13T10:58:54;9.18;;;6.22;;
15814;SDS011;8008;50.024;8.172;2023-10-13T11:01:24;7.55;;;6.28;;
15814;SDS011;8008;50.024;8.172;2023-10-13T11:04:01;11.05;;;6.80;;
15814;SDS011;8008;50.024;8.172;2023-10-13T11:06:34;11.13;;;6.50;;
15814;SDS011;8008;50.024;8.172;2023-10-13T11:09:09;9.02;;;6.55;;
15814;SDS011;8008;50.024;8.172;2023-10-13T11:11:47;7.93;;;5.85;;
15814;SDS011;8008;50.024;8.172;2023-10-13T11:14:24;9.88;;;6.40;;
15814;SDS011;8008;50.024;8.172;2023-10-13T11:16:53;10.20;;;6.47;;
15814;SDS011;8008;50.024;8.172;2023-10-13T11:19:33;7.82;;;6.05;;
15814;SDS011;8008;50.024;8.172;2023-10-13T11:22:09;8.57;;;6.00;;
15814;SDS011;8008;50.024;8.172;2023-10-13T11:24:55;10.52;;;6.18;;
15814;SDS011;8008;50.024;8.172;2023-10-13T11:27:28;9.98;;;6.47;;
15814;SDS011;8008;50.024;8.172;2023-10-13T11:30:12;10.07;;;6.47;;
15814;SDS011;8008;50.024;8.172;2023-10-13T11:32:41;12.77;;;6.43;;
15814;SDS011;8008;50.024;8.172;2023-10-13T11:35:10;8.25;;;5.75;;
15814;SDS011;8008;50.024;8.172;2023-10-13T11:37:46;10.55;;;6.68;;
15814;SDS011;8008;50.024;8.172;2023-10-13T11:40:24;10.27;;;6.20;;
15814;SDS011;8008;50.024;8.172;2023-10-13T11:43:06;10.35;;;6.35;;
15814;SDS011;8008;50.024;8.172;2023-10-13T11:45:41;7.53;;;6.07;;
15814;SDS011;8008;50.024;8.172;2023-10-13T11:48:21;7.85;;;5.88;;
15814;SDS011;8008;50.024;8.172;2023-10-13T11:51:00;8.77;;;6.07;;
15814;SDS011;8008;50.024;8.172;2023-10-13T11:53:33;9.23;;;6.03;;
15814;SDS011;8008;50.024;8.172;2023-10-13T11:56:01;7.43;;;5.80;;
15814;SDS011;8008;50.024;8.172;2023-10-13T11:58:34;7.95;;;5.32;;
15814;SDS011;8008;50.024;8.172;2023-10-13T12:01:04;8.07;;;5.68;;
15814;SDS011;8008;50.024;8.172;2023-10-13T12:03:47;7.28;;;5.47;;
15814;SDS011;8008;50.024;8.172;2023-10-13T12:06:34;7.78;;;5.63;;
15814;SDS011;8008;50.024;8.172;2023-10-13T12:09:15;6.65;;;5.38;;
15814;SDS011;8008;50.024;8.172;2023-10-13T12:11:58;9.18;;;5.57;;
15814;SDS011;8008;50.024;8.172;2023-10-13T12:14:28;7.80;;;5.13;;
15814;SDS011;8008;50.024;8.172;2023-10-13T12:17:04;6.68;;;5.28;;
15814;SDS011;8008;50.024;8.172;2023-10-13T12:19:37;8.57;;;5.43;;
15814;SDS011;8008;50.024;8.172;2023-10-13T12:22:07;7.38;;;5.47;;
15814;SDS011;8008;50.024;8.172;2023-10-13T12:24:43;6.32;;;5.28;;
15814;SDS011;8008;50.024;8.172;2023-10-13T12:27:19;7.30;;;5.68;;
15814;SDS011;8008;50.024;8.172;2023-10-13T12:29:50;7.40;;;5.60;;
15814;SDS011;8008;50.024;8.172;2023-10-13T12:32:20;7.22;;;5.57;;
15814;SDS011;8008;50.024;8.172;2023-10-13T12:34:48;7.75;;;5.35;;
15814;SDS011;8008;50.024;8.172;2023-10-13T12:37:33;6.93;;;5.35;;
15814;SDS011;8008;50.024;8.172;2023-10-13T12:40:18;8.35;;;5.22;;
15814;SDS011;8008;50.024;8.172;2023-10-13T12:43:05;7.38;;;4.90;;
15814;SDS011;8008;50.024;8.172;2023-10-13T12:45:51;7.18;;;5.32;;
15814;SDS011;8008;50.024;8.172;2023-10-13T12:48:38;6.63;;;4.63;;
15814;SDS011;8008;50.024;8.172;2023-10-13T12:51:30;8.25;;;5.00;;
15814;SDS011;8008;50.024;8.172;2023-10-13T12:54:17;10.55;;;4.85;;
15814;SDS011;8008;50.024;8.172;2023-10-13T12:56:49;7.57;;;4.93;;
15814;SDS011;8008;50.024;8.172;2023-10-13T12:59:23;6.65;;;4.80;;
15814;SDS011;8008;50.024;8.172;2023-10-13T13:01:53;6.85;;;4.72;;
15814;SDS011;8008;50.024;8.172;2023-10-13T13:04:23;9.50;;;5.20;;
15814;SDS011;8008;50.024;8.172;2023-10-13T13:06:54;7.10;;;4.80;;
15814;SDS011;8008;50.024;8.172;2023-10-13T13:09:22;7.68;;;4.97;;
15814;SDS011;8008;50.024;8.172;2023-10-13T13:11:53;9.73;;;4.93;;
15814;SDS011;8008;50.024;8.172;2023-10-13T13:14:23;6.45;;;5.03;;
15814;SDS011;8008;50.024;8.172;2023-10-13T13:16:55;8.77;;;4.95;;
15814;SDS011;8008;50.024;8.172;2023-10-13T13:19:32;6.60;;;4.88;;
15814;SDS011;8008;50.024;8.172;2023-10-13T13:22:03;7.88;;;5.13;;
15814;SDS011;8008;50.024;8.172;2023-10-13T13:24:31;8.45;;;5.22;;
15814;SDS011;8008;50.024;8.172;2023-10-13T13:26:59;5.57;;;4.65;;
15814;SDS011;8008;50.024;8.172;2023-10-13T13:29:29;7.38;;;4.93;;
15814;SDS011;8008;50.024;8.172;2023-10-13T13:31:57;8.50;;;5.15;;
15814;SDS011;8008;50.024;8.172;2023-10-13T13:34:26;8.95;;;4.97;;
15814;SDS011;8008;50.024;8.172;2023-10-13T13:36:56;6.65;;;5.10;;
15814;SDS011;8008;50.024;8.172;2023-10-13T13:39:27;6.55;;;5.05;;
15814;SDS011;8008;50.024;8.172;2023-10-13T13:41:56;9.27;;;5.38;;
15814;SDS011;8008;50.024;8.172;2023-10-13T13:44:24;6.97;;;5.05;;
15814;SDS011;8008;50.024;8.172;2023-10-13T13:46:57;9.25;;;5.10;;
15814;SDS011;8008;50.024;8.172;2023-10-13T13:49:25;9.02;;;4.93;;
15814;SDS011;8008;50.024;8.172;2023-10-13T13:52:07;7.82;;;4.88;;
15814;SDS011;8008;50.024;8.172;2023-10-13T13:54:36;8.38;;;5.22;;
15814;SDS011;8008;50.024;8.172;2023-10-13T13:57:09;6.30;;;5.18;;
15814;SDS011;8008;50.024;8.172;2023-10-13T13:59:39;6.53;;;4.80;;
15814;SDS011;8008;50.024;8.172;2023-10-13T14:02:11;8.00;;;4.60;;
15814;SDS011;8008;50.024;8.172;2023-10-13T14:04:47;6.55;;;4.97;;
15814;SDS011;8008;50.024;8.172;2023-10-13T14:07:19;11.20;;;5.80;;
15814;SDS011;8008;50.024;8.172;2023-10-13T14:09:47;7.05;;;5.18;;
15814;SDS011;8008;50.024;8.172;2023-10-13T14:12:18;8.10;;;5.20;;
15814;SDS011;8008;50.024;8.172;2023-10-13T14:14:56;6.75;;;4.75;;
15814;SDS011;8008;50.024;8.172;2023-10-13T14:17:24;6.78;;;4.60;;
15814;SDS011;8008;50.024;8.172;2023-10-13T14:19:56;7.60;;;4.50;;
15814;SDS011;8008;50.024;8.172;2023-10-13T14:22:26;8.27;;;4.95;;
15814;SDS011;8008;50.024;8.172;2023-10-13T14:24:53;7.90;;;4.70;;
15814;SDS011;8008;50.024;8.172;2023-10-13T14:27:22;4.93;;;4.40;;
15814;SDS011;8008;50.024;8.172;2023-10-13T14:29:52;5.00;;;4.40;;
15814;SDS011;8008;50.024;8.172;2023-10-13T14:32:20;6.60;;;4.93;;
15814;SDS011;8008;50.024;8.172;2023-10-13T14:34:51;6.05;;;4.57;;
15814;SDS011;8008;50.024;8.172;2023-10-13T14:37:23;7.35;;;4.70;;
15814;SDS011;8008;50.024;8.172;2023-10-13T14:39:58;5.28;;;4.65;;
15814;SDS011;8008;50.024;8.172;2023-10-13T14:42:27;5.97;;;4.68;;
15814;SDS011;8008;50.024;8.172;2023-10-13T14:45:01;5.85;;;4.75;;
15814;SDS011;8008;50.024;8.172;2023-10-13T14:47:38;5.60;;;4.63;;
15814;SDS011;8008;50.024;8.172;2023-10-13T14:50:07;7.90;;;4.82;;
15814;SDS011;8008;50.024;8.172;2023-10-13T14:52:41;7.20;;;4.60;;
15814;SDS011;8008;50.024;8.172;2023-10-13T14:55:10;8.48;;;4.97;;
15814;SDS011;8008;50.024;8.172;2023-10-13T14:57:45;10.73;;;4.28;;
15814;SDS011;8008;50.024;8.172;2023-10-13T15:00:16;9.10;;;4.63;;
15814;SDS011;8008;50.024;8.172;2023-10-13T15:02:51;6.32;;;4.65;;
15814;SDS011;8008;50.024;8.172;2023-10-13T15:05:20;5.85;;;4.53;;
15814;SDS011;8008;50.024;8.172;2023-10-13T15:07:50;5.10;;;4.13;;
15814;SDS011;8008;50.024;8.172;2023-10-13T15:10:18;6.80;;;4.32;;
15814;SDS011;8008;50.024;8.172;2023-10-13T15:12:46;7.80;;;4.13;;
15814;SDS011;8008;50.024;8.172;2023-10-13T15:15:16;7.72;;;4.40;;
15814;SDS011;8008;50.024;8.172;2023-10-13T15:17:45;7.35;;;4.25;;
15814;SDS011;8008;50.024;8.172;2023-10-13T15:20:14;6.88;;;4.05;;
15814;SDS011;8008;50.024;8.172;2023-10-13T15:22:43;7.13;;;4.50;;
15814;SDS011;8008;50.024;8.172;2023-10-13T15:25:15;7.80;;;3.95;;
15814;SDS011;8008;50.024;8.172;2023-10-13T15:27:57;7.13;;;4.20;;
15814;SDS011;8008;50.024;8.172;2023-10-13T15:30:28;8.60;;;4.32;;
15814;SDS011;8008;50.024;8.172;2023-10-13T15:33:10;8.95;;;4.18;;
15814;SDS011;8008;50.024;8.172;2023-10-13T15:35:39;6.57;;;4.50;;
15814;SDS011;8008;50.024;8.172;2023-10-13T15:38:09;8.85;;;4.20;;
15814;SDS011;8008;50.024;8.172;2023-10-13T15:40:43;7.75;;;4.43;;
15814;SDS011;8008;50.024;8.172;2023-10-13T15:43:11;10.07;;;4.68;;
15814;SDS011;8008;50.024;8.172;2023-10-13T15:45:40;11.80;;;4.60;;
15814;SDS011;8008;50.024;8.172;2023-10-13T15:48:09;7.78;;;4.43;;
15814;SDS011;8008;50.024;8.172;2023-10-13T15:50:40;7.78;;;4.50;;
15814;SDS011;8008;50.024;8.172;2023-10-13T15:53:09;6.63;;;4.30;;
15814;SDS011;8008;50.024;8.172;2023-10-13T15:55:40;6.20;;;4.30;;
15814;SDS011;8008;50.024;8.172;2023-10-13T15:58:13;6.53;;;4.40;;
15814;SDS011;8008;50.024;8.172;2023-10-13T16:00:42;5.38;;;4.75;;
15814;SDS011;8008;50.024;8.172;2023-10-13T16:03:11;7.82;;;4.55;;
15814;SDS011;8008;50.024;8.172;2023-10-13T16:05:39;5.40;;;4.43;;
15814;SDS011;8008;50.024;8.172;2023-10-13T16:08:09;7.93;;;4.65;;
15814;SDS011;8008;50.024;8.172;2023-10-13T16:10:39;7.63;;;4.68;;
15814;SDS011;8008;50.024;8.172;2023-10-13T16:13:07;6.65;;;4.90;;
15814;SDS011;8008;50.024;8.172;2023-10-13T16:15:44;8.45;;;5.43;;
15814;SDS011;8008;50.024;8.172;2023-10-13T16:18:14;7.43;;;5.00;;
15814;SDS011;8008;50.024;8.172;2023-10-13T16:20:48;9.48;;;5.45;;
15814;SDS011;8008;50.024;8.172;2023-10-13T16:23:17;11.75;;;5.20;;
15814;SDS011;8008;50.024;8.172;2023-10-13T16:25:45;7.30;;;5.53;;
15814;SDS011;8008;50.024;8.172;2023-10-13T16:28:15;10.70;;;5.82;;
15814;SDS011;8008;50.024;8.172;2023-10-13T16:30:45;7.32;;;5.30;;
15814;SDS011;8008;50.024;8.172;2023-10-13T16:33:13;8.05;;;5.88;;
15814;SDS011;8008;50.024;8.172;2023-10-13T16:35:41;7.85;;;5.47;;
15814;SDS011;8008;50.024;8.172;2023-10-13T16:38:12;8.25;;;5.63;;
15814;SDS011;8008;50.024;8.172;2023-10-13T16:40:41;7.18;;;5.90;;
15814;SDS011;8008;50.024;8.172;2023-10-13T16:43:09;8.50;;;6.30;;
15814;SDS011;8008;50.024;8.172;2023-10-13T16:45:38;9.45;;;5.97;;
15814;SDS011;8008;50.024;8.172;2023-10-13T16:48:12;8.40;;;5.90;;
15814;SDS011;8008;50.024;8.172;2023-10-13T16:50:40;8.82;;;6.15;;
15814;SDS011;8008;50.024;8.172;2023-10-13T16:53:08;8.10;;;5.90;;
15814;SDS011;8008;50.024;8.172;2023-10-13T16:55:36;9.18;;;6.72;;
15814;SDS011;8008;50.024;8.172;2023-10-13T16:58:08;11.35;;;6.68;;
15814;SDS011;8008;50.024;8.172;2023-10-13T17:00:39;7.90;;;6.22;;
15814;SDS011;8008;50.024;8.172;2023-10-13T17:03:09;11.02;;;5.80;;
15814;SDS011;8008;50.024;8.172;2023-10-13T17:05:40;7.60;;;6.10;;
15814;SDS011;8008;50.024;8.172;2023-10-13T17:08:09;8.23;;;6.05;;
15814;SDS011;8008;50.024;8.172;2023-10-13T17:10:37;8.43;;;5.85;;
15814;SDS011;8008;50.024;8.172;2023-10-13T17:13:05;8.93;;;5.88;;
15814;SDS011;8008;50.024;8.172;2023-10-13T17:15:34;9.65;;;5.65;;
15814;SDS011;8008;50.024;8.172;2023-10-13T17:18:04;8.07;;;6.15;;
15814;SDS011;8008;50.024;8.172;2023-10-13T17:20:33;8.52;;;6.10;;
15814;SDS011;8008;50.024;8.172;2023-10-13T17:23:04;9.20;;;6.20;;
15814;SDS011;8008;50.024;8.172;2023-10-13T17:25:33;11.68;;;6.28;;
15814;SDS011;8008;50.024;8.172;2023-10-13T17:28:02;9.43;;;5.97;;
15814;SDS011;8008;50.024;8.172;2023-10-13T17:30:39;9.13;;;6.13;;
15814;SDS011;8008;50.024;8.172;2023-10-13T17:33:08;9.82;;;6.47;;
15814;SDS011;8008;50.024;8.172;2023-10-13T17:35:38;9.50;;;6.53;;
15814;SDS011;8008;50.024;8.172;2023-10-13T17:38:08;9.52;;;6.97;;
15814;SDS011;8008;50.024;8.172;2023-10-13T17:40:37;11.15;;;6.90;;
15814;SDS011;8008;50.024;8.172;2023-10-13T17:43:05;10.65;;;7.30;;
15814;SDS011;8008;50.024;8.172;2023-10-13T17:45:33;9.30;;;6.57;;
15814;SDS011;8008;50.024;8.172;2023-10-13T17:48:01;9.90;;;6.95;;
15814;SDS011;8008;50.024;8.172;2023-10-13T17:50:32;10.57;;;7.25;;
15814;SDS011;8008;50.024;8.172;2023-10-13T17:53:00;9.13;;;6.63;;
15814;SDS011;8008;50.024;8.172;2023-10-13T17:55:29;9.60;;;7.07;;
15814;SDS011;8008;50.024;8.172;2023-10-13T17:57:59;9.70;;;6.32;;
15814;SDS011;8008;50.024;8.172;2023-10-13T18:00:27;8.75;;;6.80;;
15814;SDS011;8008;50.024;8.172;2023-10-13T18:02:55;9.73;;;7.47;;
15814;SDS011;8008;50.024;8.172;2023-10-13T18:05:23;12.27;;;7.22;;
15814;SDS011;8008;50.024;8.172;2023-10-13T18:07:51;9.32;;;6.72;;
15814;SDS011;8008;50.024;8.172;2023-10-13T18:10:19;9.93;;;7.18;;
15814;SDS011;8008;50.024;8.172;2023-10-13T18:12:48;11.27;;;7.20;;
15814;SDS011;8008;50.024;8.172;2023-10-13T18:15:16;11.60;;;7.80;;
15814;SDS011;8008;50.024;8.172;2023-10-13T18:17:47;10.93;;;7.55;;
15814;SDS011;8008;50.024;8.172;2023-10-13T18:20:16;9.55;;;7.15;;
15814;SDS011;8008;50.024;8.172;2023-10-13T18:22:49;10.50;;;7.03;;
15814;SDS011;8008;50.024;8.172;2023-10-13T18:25:21;11.07;;;7.05;;
15814;SDS011;8008;50.024;8.172;2023-10-13T18:27:52;9.68;;;6.63;;
15814;SDS011;8008;50.024;8.172;2023-10-13T18:30:20;9.25;;;6.63;;
15814;SDS011;8008;50.024;8.172;2023-10-13T18:32:50;9.85;;;6.50;;
15814;SDS011;8008;50.024;8.172;2023-10-13T18:35:23;9.70;;;6.13;;
15814;SDS011;8008;50.024;8.172;2023-10-13T18:37:51;9.77;;;6.70;;
15814;SDS011;8008;50.024;8.172;2023-10-13T18:40:20;9.68;;;5.90;;
15814;SDS011;8008;50.024;8.172;2023-10-13T18:42:47;10.23;;;6.70;;
15814;SDS011;8008;50.024;8.172;2023-10-13T18:45:18;9.75;;;6.97;;
15814;SDS011;8008;50.024;8.172;2023-10-13T18:47:48;11.15;;;7.15;;
15814;SDS011;8008;50.024;8.172;2023-10-13T18:50:19;14.25;;;8.80;;